sensor_id;sensor_type;location;lat;lon;timestamp;P1;durP1;ratioP1;P2;durP2;ratioP2
47866;SDS011;33628;50.806;11.586;2022-08-24T00:01:38;6.07;;;5.00;;
47866;SDS011;33628;50.806;11.586;2022-08-24T00:04:23;6.90;;;5.90;;
47866;SDS011;33628;50.806;11.586;2022-08-24T00:07:08;11.30;;;6.30;;
47866;SDS011;33628;50.806;11.586;2022-08-24T00:09:53;8.98;;;6.40;;
47866;SDS011;33628;50.806;11.586;2022-08-24T00:12:38;9.65;;;5.95;;
47866;SDS011;33628;50.806;11.586;2022-08-24T00:15:23;7.93;;;5.95;;
47866;SDS011;33628;50.806;11.586;2022-08-24T00:18:09;11.63;;;6.65;;
47866;SDS011;33628;50.806;11.586;2022-08-24T00:20:54;14.63;;;6.80;;
47866;SDS011;33628;50.806;11.586;2022-08-24T00:23:40;7.82;;;6.00;;
47866;SDS011;33628;50.806;11.586;2022-08-24T00:26:24;10.40;;;7.07;;
47866;SDS011;33628;50.806;11.586;2022-08-24T00:29:09;7.80;;;6.53;;
47866;SDS011;33628;50.806;11.586;2022-08-24T00:31:54;9.98;;;7.30;;
47866;SDS011;33628;50.806;11.586;2022-08-24T00:34:39;11.15;;;7.40;;
47866;SDS011;33628;50.806;11.586;2022-08-24T00:37:24;10.38;;;7.53;;
47866;SDS011;33628;50.806;11.586;2022-08-24T00:40:12;8.75;;;7.25;;
47866;SDS011;33628;50.806;11.586;2022-08-24T00:42:59;9.07;;;7.13;;
47866;SDS011;33628;50.806;11.586;2022-08-24T00:45:48;9.95;;;6.82;;
47866;SDS011;33628;50.806;11.586;2022-08-24T00:48:39;8.85;;;7.93;;
47866;SDS011;33628;50.806;11.586;2022-08-24T00:51:28;9.18;;;6.35;;
47866;SDS011;33628;50.806;11.586;2022-08-24T00:54:14;8.63;;;6.70;;
47866;SDS011;33628;50.806;11.586;2022-08-24T00:57:03;13.63;;;7.43;;
47866;SDS011;33628;50.806;11.586;2022-08-24T00:59:54;12.57;;;7.25;;
47866;SDS011;33628;50.806;11.586;2022-08-24T01:02:44;12.05;;;7.63;;
47866;SDS011;33628;50.806;11.586;2022-08-24T01:05:31;8.90;;;7.03;;
47866;SDS011;33628;50.806;11.586;2022-08-24T01:11:06;7.78;;;6.35;;
47866;SDS011;33628;50.806;11.586;2022-08-24T01:13:55;8.52;;;7.03;;
47866;SDS011;33628;50.806;11.586;2022-08-24T01:16:41;11.63;;;6.90;;
47866;SDS011;33628;50.806;11.586;2022-08-24T01:19:47;9.43;;;7.20;;
47866;SDS011;33628;50.806;11.586;2022-08-24T01:22:41;11.32;;;7.28;;
47866;SDS011;33628;50.806;11.586;2022-08-24T01:25:35;7.80;;;7.03;;
47866;SDS011;33628;50.806;11.586;2022-08-24T01:28:21;8.65;;;7.53;;
47866;SDS011;33628;50.806;11.586;2022-08-24T01:31:08;9.52;;;8.02;;
47866;SDS011;33628;50.806;11.586;2022-08-24T01:33:53;10.27;;;8.25;;
47866;SDS011;33628;50.806;11.586;2022-08-24T01:36:39;14.65;;;8.02;;
47866;SDS011;33628;50.806;11.586;2022-08-24T01:39:26;9.90;;;7.13;;
47866;SDS011;33628;50.806;11.586;2022-08-24T01:42:15;8.70;;;7.22;;
47866;SDS011;33628;50.806;11.586;2022-08-24T01:45:02;9.45;;;7.82;;
47866;SDS011;33628;50.806;11.586;2022-08-24T01:50:34;8.85;;;7.68;;
47866;SDS011;33628;50.806;11.586;2022-08-24T01:53:19;7.93;;;6.90;;
47866;SDS011;33628;50.806;11.586;2022-08-24T01:56:04;11.40;;;7.18;;
47866;SDS011;33628;50.806;11.586;2022-08-24T01:58:51;10.40;;;7.03;;
47866;SDS011;33628;50.806;11.586;2022-08-24T02:01:41;9.18;;;8.27;;
47866;SDS011;33628;50.806;11.586;2022-08-24T02:04:27;9.70;;;7.25;;
47866;SDS011;33628;50.806;11.586;2022-08-24T02:07:12;10.02;;;7.63;;
47866;SDS011;33628;50.806;11.586;2022-08-24T02:09:58;12.20;;;7.80;;
47866;SDS011;33628;50.806;11.586;2022-08-24T02:12:45;10.65;;;7.97;;
47866;SDS011;33628;50.806;11.586;2022-08-24T02:15:42;10.35;;;7.35;;
47866;SDS011;33628;50.806;11.586;2022-08-24T02:18:27;11.20;;;7.45;;
47866;SDS011;33628;50.806;11.586;2022-08-24T02:21:14;9.93;;;7.68;;
47866;SDS011;33628;50.806;11.586;2022-08-24T02:23:59;9.25;;;7.40;;
47866;SDS011;33628;50.806;11.586;2022-08-24T02:26:44;10.35;;;7.45;;
47866;SDS011;33628;50.806;11.586;2022-08-24T02:29:29;9.90;;;7.70;;
47866;SDS011;33628;50.806;11.586;2022-08-24T02:32:16;10.50;;;7.47;;
47866;SDS011;33628;50.806;11.586;2022-08-24T04:03:23;10.23;;;7.97;;
47866;SDS011;33628;50.806;11.586;2022-08-24T04:08:15;8.68;;;7.47;;
47866;SDS011;33628;50.806;11.586;2022-08-24T04:10:43;11.60;;;8.15;;
47866;SDS011;33628;50.806;11.586;2022-08-24T04:13:09;9.00;;;7.93;;
47866;SDS011;33628;50.806;11.586;2022-08-24T04:15:37;9.30;;;7.38;;
47866;SDS011;33628;50.806;11.586;2022-08-24T04:18:06;9.57;;;7.40;;
47866;SDS011;33628;50.806;11.586;2022-08-24T04:20:35;10.05;;;7.82;;
47866;SDS011;33628;50.806;11.586;2022-08-24T04:23:02;11.23;;;7.55;;
47866;SDS011;33628;50.806;11.586;2022-08-24T04:25:28;11.45;;;7.53;;
47866;SDS011;33628;50.806;11.586;2022-08-24T04:27:56;11.77;;;8.15;;
47866;SDS011;33628;50.806;11.586;2022-08-24T04:30:22;14.07;;;7.80;;
47866;SDS011;33628;50.806;11.586;2022-08-24T04:33:09;10.55;;;8.07;;
47866;SDS011;33628;50.806;11.586;2022-08-24T04:35:37;9.82;;;7.55;;
47866;SDS011;33628;50.806;11.586;2022-08-24T04:38:04;8.80;;;7.18;;
47866;SDS011;33628;50.806;11.586;2022-08-24T04:40:31;9.50;;;7.82;;
47866;SDS011;33628;50.806;11.586;2022-08-24T04:42:58;9.80;;;7.43;;
47866;SDS011;33628;50.806;11.586;2022-08-24T04:45:25;9.10;;;7.72;;
47866;SDS011;33628;50.806;11.586;2022-08-24T04:47:51;13.75;;;8.23;;
47866;SDS011;33628;50.806;11.586;2022-08-24T04:50:20;11.63;;;8.30;;
47866;SDS011;33628;50.806;11.586;2022-08-24T04:52:49;16.45;;;8.35;;
47866;SDS011;33628;50.806;11.586;2022-08-24T04:55:16;10.35;;;7.50;;
47866;SDS011;33628;50.806;11.586;2022-08-24T04:57:43;13.60;;;9.05;;
47866;SDS011;33628;50.806;11.586;2022-08-24T05:00:10;18.95;;;8.60;;
47866;SDS011;33628;50.806;11.586;2022-08-24T05:02:40;18.70;;;8.70;;
47866;SDS011;33628;50.806;11.586;2022-08-24T05:05:07;12.98;;;8.45;;
47866;SDS011;33628;50.806;11.586;2022-08-24T05:07:36;13.85;;;8.40;;
47866;SDS011;33628;50.806;11.586;2022-08-24T05:10:03;17.17;;;8.80;;
47866;SDS011;33628;50.806;11.586;2022-08-24T05:12:32;12.43;;;9.60;;
47866;SDS011;33628;50.806;11.586;2022-08-24T05:15:01;14.02;;;8.85;;
47866;SDS011;33628;50.806;11.586;2022-08-24T05:17:32;11.90;;;8.18;;
47866;SDS011;33628;50.806;11.586;2022-08-24T05:19:59;9.88;;;8.30;;
47866;SDS011;33628;50.806;11.586;2022-08-24T05:22:25;17.48;;;8.38;;
47866;SDS011;33628;50.806;11.586;2022-08-24T05:24:54;10.98;;;8.90;;
47866;SDS011;33628;50.806;11.586;2022-08-24T05:27:21;12.18;;;8.60;;
47866;SDS011;33628;50.806;11.586;2022-08-24T05:29:51;16.52;;;9.13;;
47866;SDS011;33628;50.806;11.586;2022-08-24T05:32:17;12.73;;;8.75;;
47866;SDS011;33628;50.806;11.586;2022-08-24T05:34:44;13.50;;;9.45;;
47866;SDS011;33628;50.806;11.586;2022-08-24T05:37:10;13.45;;;9.13;;
47866;SDS011;33628;50.806;11.586;2022-08-24T05:39:50;11.73;;;8.48;;
47866;SDS011;33628;50.806;11.586;2022-08-24T05:42:19;11.73;;;8.93;;
47866;SDS011;33628;50.806;11.586;2022-08-24T05:44:47;10.93;;;8.63;;
47866;SDS011;33628;50.806;11.586;2022-08-24T05:47:17;9.00;;;8.02;;
47866;SDS011;33628;50.806;11.586;2022-08-24T05:49:44;11.05;;;8.02;;
47866;SDS011;33628;50.806;11.586;2022-08-24T05:52:10;11.07;;;8.57;;
47866;SDS011;33628;50.806;11.586;2022-08-24T05:54:37;14.23;;;8.90;;
47866;SDS011;33628;50.806;11.586;2022-08-24T05:57:04;12.75;;;8.20;;
47866;SDS011;33628;50.806;11.586;2022-08-24T05:59:51;10.82;;;8.40;;
47866;SDS011;33628;50.806;11.586;2022-08-24T06:02:18;9.60;;;7.30;;
47866;SDS011;33628;50.806;11.586;2022-08-24T06:04:44;12.05;;;8.57;;
47866;SDS011;33628;50.806;11.586;2022-08-24T06:07:11;12.82;;;8.30;;
47866;SDS011;33628;50.806;11.586;2022-08-24T06:09:41;9.23;;;7.40;;
47866;SDS011;33628;50.806;11.586;2022-08-24T06:12:08;9.45;;;8.07;;
47866;SDS011;33628;50.806;11.586;2022-08-24T06:14:36;12.60;;;8.35;;
47866;SDS011;33628;50.806;11.586;2022-08-24T06:17:06;13.52;;;8.13;;
47866;SDS011;33628;50.806;11.586;2022-08-24T06:19:33;10.00;;;8.45;;
47866;SDS011;33628;50.806;11.586;2022-08-24T06:22:01;10.68;;;8.32;;
47866;SDS011;33628;50.806;11.586;2022-08-24T06:24:29;9.27;;;7.60;;
47866;SDS011;33628;50.806;11.586;2022-08-24T06:27:16;11.23;;;8.52;;
47866;SDS011;33628;50.806;11.586;2022-08-24T06:29:45;11.98;;;7.78;;
47866;SDS011;33628;50.806;11.586;2022-08-24T06:32:33;10.15;;;6.25;;
47866;SDS011;33628;50.806;11.586;2022-08-24T06:35:00;12.13;;;6.18;;
47866;SDS011;33628;50.806;11.586;2022-08-24T06:37:27;7.28;;;5.55;;
47866;SDS011;33628;50.806;11.586;2022-08-24T06:39:54;10.85;;;5.50;;
47866;SDS011;33628;50.806;11.586;2022-08-24T06:42:21;8.80;;;5.28;;
47866;SDS011;33628;50.806;11.586;2022-08-24T06:44:49;8.15;;;5.47;;
47866;SDS011;33628;50.806;11.586;2022-08-24T06:47:20;7.72;;;5.70;;
47866;SDS011;33628;50.806;11.586;2022-08-24T06:49:52;9.23;;;5.43;;
47866;SDS011;33628;50.806;11.586;2022-08-24T06:52:19;8.38;;;5.60;;
47866;SDS011;33628;50.806;11.586;2022-08-24T06:54:46;6.65;;;5.55;;
47866;SDS011;33628;50.806;11.586;2022-08-24T06:57:12;8.52;;;4.97;;
47866;SDS011;33628;50.806;11.586;2022-08-24T06:59:38;6.57;;;4.70;;
47866;SDS011;33628;50.806;11.586;2022-08-24T07:02:07;8.02;;;5.03;;
47866;SDS011;33628;50.806;11.586;2022-08-24T07:04:35;8.32;;;4.50;;
47866;SDS011;33628;50.806;11.586;2022-08-24T07:07:25;6.50;;;4.75;;
47866;SDS011;33628;50.806;11.586;2022-08-24T07:09:52;7.53;;;4.85;;
47866;SDS011;33628;50.806;11.586;2022-08-24T07:12:18;6.70;;;4.97;;
47866;SDS011;33628;50.806;11.586;2022-08-24T07:14:44;6.85;;;4.70;;
47866;SDS011;33628;50.806;11.586;2022-08-24T07:17:12;8.27;;;5.18;;
47866;SDS011;33628;50.806;11.586;2022-08-24T07:19:39;6.30;;;4.78;;
47866;SDS011;33628;50.806;11.586;2022-08-24T07:22:07;6.55;;;5.20;;
47866;SDS011;33628;50.806;11.586;2022-08-24T07:24:35;9.88;;;4.78;;
47866;SDS011;33628;50.806;11.586;2022-08-24T07:27:02;6.25;;;4.90;;
47866;SDS011;33628;50.806;11.586;2022-08-24T07:29:29;7.47;;;4.75;;
47866;SDS011;33628;50.806;11.586;2022-08-24T07:31:56;6.07;;;5.32;;
47866;SDS011;33628;50.806;11.586;2022-08-24T07:34:32;8.35;;;5.15;;
47866;SDS011;33628;50.806;11.586;2022-08-24T07:37:00;8.75;;;4.70;;
47866;SDS011;33628;50.806;11.586;2022-08-24T07:39:27;7.47;;;4.93;;
47866;SDS011;33628;50.806;11.586;2022-08-24T07:41:56;7.18;;;4.13;;
47866;SDS011;33628;50.806;11.586;2022-08-24T07:44:22;9.85;;;4.35;;
47866;SDS011;33628;50.806;11.586;2022-08-24T07:46:49;7.10;;;3.97;;
47866;SDS011;33628;50.806;11.586;2022-08-24T07:49:17;8.20;;;4.47;;
47866;SDS011;33628;50.806;11.586;2022-08-24T07:51:43;8.27;;;4.60;;
47866;SDS011;33628;50.806;11.586;2022-08-24T07:54:10;7.60;;;4.43;;
47866;SDS011;33628;50.806;11.586;2022-08-24T07:56:41;7.15;;;4.32;;
47866;SDS011;33628;50.806;11.586;2022-08-24T07:59:09;6.35;;;4.57;;
47866;SDS011;33628;50.806;11.586;2022-08-24T08:01:36;7.72;;;4.72;;
47866;SDS011;33628;50.806;11.586;2022-08-24T08:04:03;10.02;;;5.80;;
47866;SDS011;33628;50.806;11.586;2022-08-24T08:06:30;8.93;;;4.68;;
47866;SDS011;33628;50.806;11.586;2022-08-24T08:09:00;7.68;;;4.78;;
47866;SDS011;33628;50.806;11.586;2022-08-24T08:11:29;5.72;;;4.20;;
47866;SDS011;33628;50.806;11.586;2022-08-24T08:13:56;9.02;;;4.28;;
47866;SDS011;33628;50.806;11.586;2022-08-24T08:16:24;9.75;;;4.57;;
47866;SDS011;33628;50.806;11.586;2022-08-24T08:18:51;9.18;;;5.05;;
47866;SDS011;33628;50.806;11.586;2022-08-24T08:21:17;7.00;;;4.45;;
47866;SDS011;33628;50.806;11.586;2022-08-24T08:24:02;8.82;;;4.68;;
47866;SDS011;33628;50.806;11.586;2022-08-24T08:26:52;6.95;;;4.18;;
47866;SDS011;33628;50.806;11.586;2022-08-24T08:29:25;6.88;;;4.38;;
47866;SDS011;33628;50.806;11.586;2022-08-24T08:31:53;7.57;;;4.30;;
47866;SDS011;33628;50.806;11.586;2022-08-24T08:34:20;10.82;;;4.70;;
47866;SDS011;33628;50.806;11.586;2022-08-24T08:36:47;5.70;;;4.28;;
47866;SDS011;33628;50.806;11.586;2022-08-24T08:39:16;7.03;;;4.30;;
47866;SDS011;33628;50.806;11.586;2022-08-24T08:45:01;5.90;;;4.07;;
47866;SDS011;33628;50.806;11.586;2022-08-24T08:47:38;10.05;;;4.53;;
47866;SDS011;33628;50.806;11.586;2022-08-24T08:50:20;4.90;;;4.10;;
47866;SDS011;33628;50.806;11.586;2022-08-24T08:55:52;10.68;;;4.32;;
47866;SDS011;33628;50.806;11.586;2022-08-24T08:58:35;7.80;;;4.75;;
47866;SDS011;33628;50.806;11.586;2022-08-24T09:01:09;7.57;;;3.90;;
47866;SDS011;33628;50.806;11.586;2022-08-24T09:06:56;7.65;;;3.92;;
47866;SDS011;33628;50.806;11.586;2022-08-24T09:12:45;8.93;;;3.47;;
47866;SDS011;33628;50.806;11.586;2022-08-24T09:15:26;5.47;;;3.47;;
47866;SDS011;33628;50.806;11.586;2022-08-24T09:18:04;8.98;;;3.88;;
47866;SDS011;33628;50.806;11.586;2022-08-24T09:20:46;8.05;;;3.70;;
47866;SDS011;33628;50.806;11.586;2022-08-24T09:23:17;9.00;;;3.90;;
47866;SDS011;33628;50.806;11.586;2022-08-24T09:25:50;8.02;;;3.30;;
47866;SDS011;33628;50.806;11.586;2022-08-24T09:28:28;5.10;;;2.85;;
47866;SDS011;33628;50.806;11.586;2022-08-24T09:33:50;4.15;;;2.85;;
47866;SDS011;33628;50.806;11.586;2022-08-24T09:36:45;5.57;;;3.40;;
47866;SDS011;33628;50.806;11.586;2022-08-24T09:39:14;4.00;;;2.78;;
47866;SDS011;33628;50.806;11.586;2022-08-24T09:44:37;5.25;;;2.80;;
47866;SDS011;33628;50.806;11.586;2022-08-24T09:47:17;5.40;;;2.60;;
47866;SDS011;33628;50.806;11.586;2022-08-24T09:50:11;5.95;;;2.45;;
47866;SDS011;33628;50.806;11.586;2022-08-24T09:58:58;4.72;;;2.72;;
47866;SDS011;33628;50.806;11.586;2022-08-24T10:01:30;6.88;;;3.00;;
47866;SDS011;33628;50.806;11.586;2022-08-24T10:04:02;6.47;;;2.92;;
47866;SDS011;33628;50.806;11.586;2022-08-24T10:06:40;4.90;;;2.80;;
47866;SDS011;33628;50.806;11.586;2022-08-24T10:09:32;5.18;;;2.90;;
47866;SDS011;33628;50.806;11.586;2022-08-24T10:12:07;8.65;;;3.08;;
47866;SDS011;33628;50.806;11.586;2022-08-24T10:14:46;7.43;;;2.97;;
47866;SDS011;33628;50.806;11.586;2022-08-24T10:17:19;9.65;;;3.38;;
47866;SDS011;33628;50.806;11.586;2022-08-24T10:19:55;8.57;;;2.78;;
47866;SDS011;33628;50.806;11.586;2022-08-24T10:22:33;5.30;;;2.55;;
47866;SDS011;33628;50.806;11.586;2022-08-24T10:25:21;6.13;;;2.80;;
47866;SDS011;33628;50.806;11.586;2022-08-24T10:27:56;5.63;;;3.05;;
47866;SDS011;33628;50.806;11.586;2022-08-24T10:30:50;6.07;;;2.72;;
47866;SDS011;33628;50.806;11.586;2022-08-24T10:33:38;4.07;;;2.40;;
47866;SDS011;33628;50.806;11.586;2022-08-24T10:39:01;4.20;;;2.30;;
47866;SDS011;33628;50.806;11.586;2022-08-24T10:42:15;5.80;;;2.85;;
47866;SDS011;33628;50.806;11.586;2022-08-24T10:45:15;4.00;;;2.20;;
47866;SDS011;33628;50.806;11.586;2022-08-24T10:47:54;7.40;;;2.25;;
47866;SDS011;33628;50.806;11.586;2022-08-24T10:50:32;3.10;;;2.40;;
47866;SDS011;33628;50.806;11.586;2022-08-24T10:53:11;3.08;;;2.20;;
47866;SDS011;33628;50.806;11.586;2022-08-24T10:55:39;4.23;;;1.97;;
47866;SDS011;33628;50.806;11.586;2022-08-24T10:58:10;5.22;;;2.10;;
47866;SDS011;33628;50.806;11.586;2022-08-24T11:00:55;5.07;;;2.25;;
47866;SDS011;33628;50.806;11.586;2022-08-24T11:03:24;3.00;;;1.98;;
47866;SDS011;33628;50.806;11.586;2022-08-24T11:05:52;6.43;;;2.38;;
47866;SDS011;33628;50.806;11.586;2022-08-24T11:08:20;4.13;;;2.00;;
47866;SDS011;33628;50.806;11.586;2022-08-24T11:11:01;4.57;;;2.38;;
47866;SDS011;33628;50.806;11.586;2022-08-24T11:13:33;6.05;;;1.95;;
47866;SDS011;33628;50.806;11.586;2022-08-24T11:16:06;4.07;;;2.10;;
47866;SDS011;33628;50.806;11.586;2022-08-24T11:21:31;7.20;;;2.20;;
47866;SDS011;33628;50.806;11.586;2022-08-24T11:24:04;4.00;;;1.77;;
47866;SDS011;33628;50.806;11.586;2022-08-24T11:26:31;5.22;;;1.88;;
47866;SDS011;33628;50.806;11.586;2022-08-24T11:29:16;2.60;;;1.80;;
47866;SDS011;33628;50.806;11.586;2022-08-24T11:31:43;3.42;;;2.33;;
47866;SDS011;33628;50.806;11.586;2022-08-24T11:34:17;2.58;;;1.80;;
47866;SDS011;33628;50.806;11.586;2022-08-24T11:36:58;3.30;;;1.70;;
47866;SDS011;33628;50.806;11.586;2022-08-24T11:39:25;3.55;;;1.67;;
47866;SDS011;33628;50.806;11.586;2022-08-24T11:41:56;6.80;;;1.80;;
47866;SDS011;33628;50.806;11.586;2022-08-24T11:44:32;8.80;;;2.05;;
47866;SDS011;33628;50.806;11.586;2022-08-24T11:47:02;2.95;;;1.77;;
47866;SDS011;33628;50.806;11.586;2022-08-24T11:49:33;4.70;;;1.85;;
47866;SDS011;33628;50.806;11.586;2022-08-24T11:52:05;2.47;;;1.70;;
47866;SDS011;33628;50.806;11.586;2022-08-24T11:54:37;6.68;;;2.05;;
47866;SDS011;33628;50.806;11.586;2022-08-24T11:57:07;8.05;;;2.22;;
47866;SDS011;33628;50.806;11.586;2022-08-24T11:59:39;3.28;;;1.70;;
47866;SDS011;33628;50.806;11.586;2022-08-24T12:02:07;3.22;;;1.92;;
47866;SDS011;33628;50.806;11.586;2022-08-24T12:04:40;2.67;;;2.08;;
47866;SDS011;33628;50.806;11.586;2022-08-24T12:07:14;4.47;;;2.13;;
47866;SDS011;33628;50.806;11.586;2022-08-24T12:09:53;3.40;;;2.20;;
47866;SDS011;33628;50.806;11.586;2022-08-24T12:12:24;6.32;;;2.10;;
47866;SDS011;33628;50.806;11.586;2022-08-24T12:14:53;4.88;;;1.75;;
47866;SDS011;33628;50.806;11.586;2022-08-24T12:17:25;3.75;;;1.88;;
47866;SDS011;33628;50.806;11.586;2022-08-24T12:19:57;5.57;;;2.55;;
47866;SDS011;33628;50.806;11.586;2022-08-24T12:22:26;3.28;;;1.90;;
47866;SDS011;33628;50.806;11.586;2022-08-24T12:24:53;6.32;;;2.10;;
47866;SDS011;33628;50.806;11.586;2022-08-24T12:27:22;3.58;;;2.22;;
47866;SDS011;33628;50.806;11.586;2022-08-24T12:29:49;5.28;;;1.85;;
47866;SDS011;33628;50.806;11.586;2022-08-24T12:32:17;3.95;;;1.95;;
47866;SDS011;33628;50.806;11.586;2022-08-24T12:34:47;5.55;;;2.17;;
47866;SDS011;33628;50.806;11.586;2022-08-24T12:37:17;3.60;;;1.90;;
47866;SDS011;33628;50.806;11.586;2022-08-24T12:39:47;4.70;;;1.98;;
47866;SDS011;33628;50.806;11.586;2022-08-24T12:42:16;5.43;;;1.80;;
47866;SDS011;33628;50.806;11.586;2022-08-24T12:44:46;4.78;;;2.30;;
47866;SDS011;33628;50.806;11.586;2022-08-24T12:47:18;5.18;;;2.17;;
47866;SDS011;33628;50.806;11.586;2022-08-24T12:49:49;3.78;;;1.75;;
47866;SDS011;33628;50.806;11.586;2022-08-24T12:55:24;5.88;;;2.35;;
47866;SDS011;33628;50.806;11.586;2022-08-24T12:58:25;3.13;;;2.42;;
47866;SDS011;33628;50.806;11.586;2022-08-24T13:01:08;5.22;;;2.15;;
47866;SDS011;33628;50.806;11.586;2022-08-24T13:03:37;4.57;;;2.03;;
47866;SDS011;33628;50.806;11.586;2022-08-24T13:06:05;7.57;;;2.20;;
47866;SDS011;33628;50.806;11.586;2022-08-24T13:08:33;5.32;;;2.38;;
47866;SDS011;33628;50.806;11.586;2022-08-24T13:11:03;3.65;;;2.20;;
47866;SDS011;33628;50.806;11.586;2022-08-24T13:13:40;6.18;;;2.28;;
47866;SDS011;33628;50.806;11.586;2022-08-24T13:16:08;7.43;;;2.50;;
47866;SDS011;33628;50.806;11.586;2022-08-24T13:21:33;4.90;;;2.70;;
47866;SDS011;33628;50.806;11.586;2022-08-24T13:30:36;5.60;;;2.27;;
47866;SDS011;33628;50.806;11.586;2022-08-24T13:33:32;5.65;;;2.70;;
47866;SDS011;33628;50.806;11.586;2022-08-24T13:36:08;4.18;;;2.35;;
47866;SDS011;33628;50.806;11.586;2022-08-24T13:39:19;3.97;;;2.35;;
47866;SDS011;33628;50.806;11.586;2022-08-24T13:42:11;4.95;;;1.83;;
47866;SDS011;33628;50.806;11.586;2022-08-24T13:44:51;4.82;;;2.20;;
47866;SDS011;33628;50.806;11.586;2022-08-24T13:47:23;5.20;;;2.25;;
47866;SDS011;33628;50.806;11.586;2022-08-24T13:49:58;5.70;;;2.38;;
47866;SDS011;33628;50.806;11.586;2022-08-24T13:52:44;5.68;;;2.20;;
47866;SDS011;33628;50.806;11.586;2022-08-24T13:55:31;7.35;;;2.50;;
47866;SDS011;33628;50.806;11.586;2022-08-24T13:58:09;7.97;;;2.28;;
47866;SDS011;33628;50.806;11.586;2022-08-24T14:00:38;4.78;;;2.10;;
47866;SDS011;33628;50.806;11.586;2022-08-24T14:03:11;4.70;;;2.33;;
47866;SDS011;33628;50.806;11.586;2022-08-24T14:05:40;4.63;;;1.90;;
47866;SDS011;33628;50.806;11.586;2022-08-24T14:08:10;4.55;;;2.15;;
47866;SDS011;33628;50.806;11.586;2022-08-24T14:10:47;5.40;;;2.10;;
47866;SDS011;33628;50.806;11.586;2022-08-24T14:13:20;4.22;;;2.63;;
47866;SDS011;33628;50.806;11.586;2022-08-24T14:15:55;4.72;;;2.65;;
47866;SDS011;33628;50.806;11.586;2022-08-24T14:18:48;5.40;;;2.17;;
47866;SDS011;33628;50.806;11.586;2022-08-24T14:21:20;3.88;;;2.00;;
47866;SDS011;33628;50.806;11.586;2022-08-24T14:23:54;2.75;;;2.00;;
47866;SDS011;33628;50.806;11.586;2022-08-24T14:29:33;4.10;;;2.30;;
47866;SDS011;33628;50.806;11.586;2022-08-24T14:37:44;2.77;;;2.13;;
47866;SDS011;33628;50.806;11.586;2022-08-24T14:40:14;4.85;;;2.83;;
47866;SDS011;33628;50.806;11.586;2022-08-24T14:42:46;5.72;;;2.80;;
47866;SDS011;33628;50.806;11.586;2022-08-24T14:45:20;4.28;;;2.53;;
47866;SDS011;33628;50.806;11.586;2022-08-24T14:47:51;6.38;;;2.47;;
47866;SDS011;33628;50.806;11.586;2022-08-24T14:50:26;8.45;;;2.38;;
47866;SDS011;33628;50.806;11.586;2022-08-24T14:53:03;6.82;;;2.30;;
47866;SDS011;33628;50.806;11.586;2022-08-24T14:55:36;4.20;;;2.08;;
47866;SDS011;33628;50.806;11.586;2022-08-24T14:58:09;4.07;;;2.20;;
47866;SDS011;33628;50.806;11.586;2022-08-24T15:06:19;10.18;;;2.10;;
47866;SDS011;33628;50.806;11.586;2022-08-24T15:08:48;6.38;;;2.90;;
47866;SDS011;33628;50.806;11.586;2022-08-24T15:11:17;6.35;;;2.30;;
47866;SDS011;33628;50.806;11.586;2022-08-24T15:13:48;4.65;;;2.60;;
47866;SDS011;33628;50.806;11.586;2022-08-24T15:16:17;4.38;;;2.10;;
47866;SDS011;33628;50.806;11.586;2022-08-24T15:18:47;8.52;;;2.72;;
47866;SDS011;33628;50.806;11.586;2022-08-24T15:21:19;5.93;;;2.60;;
47866;SDS011;33628;50.806;11.586;2022-08-24T15:23:54;5.20;;;2.75;;
47866;SDS011;33628;50.806;11.586;2022-08-24T15:26:26;5.35;;;2.10;;
47866;SDS011;33628;50.806;11.586;2022-08-24T15:28:56;4.00;;;2.00;;
47866;SDS011;33628;50.806;11.586;2022-08-24T15:31:24;5.10;;;2.40;;
47866;SDS011;33628;50.806;11.586;2022-08-24T15:33:53;3.75;;;1.98;;
47866;SDS011;33628;50.806;11.586;2022-08-24T15:36:19;3.20;;;2.20;;
47866;SDS011;33628;50.806;11.586;2022-08-24T15:38:45;4.45;;;1.90;;
47866;SDS011;33628;50.806;11.586;2022-08-24T15:41:14;3.45;;;2.13;;
47866;SDS011;33628;50.806;11.586;2022-08-24T15:43:42;3.50;;;2.08;;
47866;SDS011;33628;50.806;11.586;2022-08-24T15:46:09;3.83;;;2.10;;
47866;SDS011;33628;50.806;11.586;2022-08-24T15:48:36;7.28;;;1.88;;
47866;SDS011;33628;50.806;11.586;2022-08-24T15:51:03;7.22;;;2.50;;
47866;SDS011;33628;50.806;11.586;2022-08-24T15:53:31;3.83;;;2.08;;
47866;SDS011;33628;50.806;11.586;2022-08-24T15:55:58;3.55;;;1.90;;
47866;SDS011;33628;50.806;11.586;2022-08-24T15:58:34;5.68;;;2.30;;
47866;SDS011;33628;50.806;11.586;2022-08-24T16:01:20;4.85;;;1.83;;
47866;SDS011;33628;50.806;11.586;2022-08-24T16:04:06;2.33;;;1.75;;
47866;SDS011;33628;50.806;11.586;2022-08-24T16:06:35;4.18;;;1.83;;
47866;SDS011;33628;50.806;11.586;2022-08-24T16:09:03;4.45;;;1.80;;
47866;SDS011;33628;50.806;11.586;2022-08-24T16:11:31;4.30;;;2.28;;
47866;SDS011;33628;50.806;11.586;2022-08-24T16:14:01;3.15;;;2.30;;
47866;SDS011;33628;50.806;11.586;2022-08-24T16:16:37;4.07;;;1.98;;
47866;SDS011;33628;50.806;11.586;2022-08-24T16:19:04;3.88;;;2.00;;
47866;SDS011;33628;50.806;11.586;2022-08-24T16:21:33;4.18;;;2.10;;
47866;SDS011;33628;50.806;11.586;2022-08-24T16:24:05;2.10;;;1.80;;
47866;SDS011;33628;50.806;11.586;2022-08-24T16:26:48;4.07;;;2.25;;
47866;SDS011;33628;50.806;11.586;2022-08-24T16:32:04;4.95;;;2.55;;
47866;SDS011;33628;50.806;11.586;2022-08-24T16:34:34;3.95;;;2.28;;
47866;SDS011;33628;50.806;11.586;2022-08-24T16:37:01;3.13;;;2.42;;
47866;SDS011;33628;50.806;11.586;2022-08-24T16:39:28;5.78;;;3.10;;
47866;SDS011;33628;50.806;11.586;2022-08-24T16:41:55;7.55;;;2.40;;
47866;SDS011;33628;50.806;11.586;2022-08-24T16:44:23;4.22;;;2.40;;
47866;SDS011;33628;50.806;11.586;2022-08-24T16:46:50;5.43;;;2.97;;
47866;SDS011;33628;50.806;11.586;2022-08-24T16:49:18;3.47;;;2.53;;
47866;SDS011;33628;50.806;11.586;2022-08-24T16:51:44;7.00;;;3.17;;
47866;SDS011;33628;50.806;11.586;2022-08-24T16:54:10;5.28;;;2.60;;
47866;SDS011;33628;50.806;11.586;2022-08-24T16:56:37;5.03;;;2.40;;
47866;SDS011;33628;50.806;11.586;2022-08-24T16:59:03;5.10;;;2.78;;
47866;SDS011;33628;50.806;11.586;2022-08-24T17:01:29;7.63;;;2.58;;
47866;SDS011;33628;50.806;11.586;2022-08-24T17:03:55;6.20;;;2.63;;
47866;SDS011;33628;50.806;11.586;2022-08-24T17:06:23;6.82;;;2.30;;
47866;SDS011;33628;50.806;11.586;2022-08-24T17:08:50;5.25;;;2.75;;
47866;SDS011;33628;50.806;11.586;2022-08-24T17:11:17;6.00;;;2.35;;
47866;SDS011;33628;50.806;11.586;2022-08-24T17:13:44;7.28;;;2.70;;
47866;SDS011;33628;50.806;11.586;2022-08-24T17:16:10;5.00;;;2.70;;
47866;SDS011;33628;50.806;11.586;2022-08-24T17:18:37;8.25;;;3.05;;
47866;SDS011;33628;50.806;11.586;2022-08-24T17:21:04;6.63;;;2.95;;
47866;SDS011;33628;50.806;11.586;2022-08-24T17:23:32;6.00;;;2.78;;
47866;SDS011;33628;50.806;11.586;2022-08-24T17:25:59;8.63;;;2.58;;
47866;SDS011;33628;50.806;11.586;2022-08-24T17:28:25;7.60;;;3.00;;
47866;SDS011;33628;50.806;11.586;2022-08-24T17:30:51;5.00;;;2.63;;
47866;SDS011;33628;50.806;11.586;2022-08-24T17:33:18;7.30;;;2.90;;
47866;SDS011;33628;50.806;11.586;2022-08-24T17:35:44;4.78;;;2.80;;
47866;SDS011;33628;50.806;11.586;2022-08-24T17:38:10;7.80;;;3.25;;
47866;SDS011;33628;50.806;11.586;2022-08-24T17:40:38;4.68;;;3.20;;
47866;SDS011;33628;50.806;11.586;2022-08-24T17:43:04;4.93;;;2.70;;
47866;SDS011;33628;50.806;11.586;2022-08-24T17:45:31;8.27;;;3.03;;
47866;SDS011;33628;50.806;11.586;2022-08-24T17:47:57;8.27;;;3.22;;